Time,TemperatureF,DewpointF,PressureIn,WindDirection,WindDirectionDegrees,WindSpeedMPH,WindSpeedGustMPH,Humidity,HourlyPrecipIn,Conditions,Clouds,dailyrainin,SoftwareType,DateUTC
2013-04-26 00:01:00,37.6,30.0,28.55,ENE,70,0.0,0.0,74,0.00,,,0.00,weatherlink.com 1.10,2013-04-26 04:01:00,
2013-04-26 00:17:00,37.0,30.0,28.55,ENE,75,0.0,1.0,75,0.00,,,0.00,weatherlink.com 1.10,2013-04-26 04:17:00,
2013-04-26 00:32:00,36.3,29.0,28.55,ENE,75,0.0,0.0,76,0.00,,,0.00,weatherlink.com 1.10,2013-04-26 04:32:00,
2013-04-26 00:47:00,35.8,29.0,28.55,ENE,75,0.0,0.0,77,0.00,,,0.00,weatherlink.com 1.10,2013-04-26 04:47:00,
2013-04-26 01:02:00,35.5,29.0,28.55,ENE,75,0.0,1.0,78,0.00,,,0.00,weatherlink.com 1.10,2013-04-26 05:02:00,
2013-04-26 01:17:00,35.0,29.0,28.56,ENE,75,0.0,0.0,80,0.00,,,0.00,weatherlink.com 1.10,2013-04-26 05:17:00,
2013-04-26 01:32:00,34.5,30.0,28.56,ENE,77,0.0,0.0,82,0.00,,,0.00,weatherlink.com 1.10,2013-04-26 05:32:00,
2013-04-26 01:47:00,34.3,29.0,28.56,ENE,75,0.0,0.0,81,0.00,,,0.00,weatherlink.com 1.10,2013-04-26 05:47:00,
2013-04-26 02:02:00,33.7,29.0,28.56,ENE,77,0.0,0.0,82,0.00,,,0.00,weatherlink.com 1.10,2013-04-26 06:02:00,
2013-04-26 02:17:00,33.4,29.0,28.56,ENE,78,0.0,0.0,82,0.00,,,0.00,weatherlink.com 1.10,2013-04-26 06:17:00,
2013-04-26 02:32:00,33.5,29.0,28.56,ENE,77,0.0,0.0,83,0.00,,,0.00,weatherlink.com 1.10,2013-04-26 06:32:00,
2013-04-26 02:47:00,33.0,28.0,28.55,ENE,77,0.0,0.0,82,0.00,,,0.00,weatherlink.com 1.10,2013-04-26 06:47:00,
2013-04-26 03:02:00,32.2,29.0,28.56,ENE,77,0.0,0.0,86,0.00,,,0.00,weatherlink.com 1.10,2013-04-26 07:02:00,
2013-04-26 03:17:00,31.9,28.0,28.56,East,79,0.0,0.0,86,0.00,,,0.00,weatherlink.com 1.10,2013-04-26 07:17:00,
2013-04-26 03:32:00,31.5,28.0,28.57,East,81,0.0,0.0,87,0.00,,,0.00,weatherlink.com 1.10,2013-04-26 07:32:00,
2013-04-26 03:47:00,31.0,28.0,28.57,East,80,0.0,0.0,88,0.00,,,0.00,weatherlink.com 1.10,2013-04-26 07:47:00,
2013-04-26 04:02:00,31.6,28.0,28.57,East,79,0.0,1.0,87,0.00,,,0.00,weatherlink.com 1.10,2013-04-26 08:02:00,
2013-04-26 04:17:00,32.1,28.0,28.57,ENE,74,0.0,1.0,85,0.00,,,0.00,weatherlink.com 1.10,2013-04-26 08:17:00,
2013-04-26 04:32:00,31.5,28.0,28.58,ENE,74,0.0,0.0,86,0.00,,,0.00,weatherlink.com 1.10,2013-04-26 08:32:00,
2013-04-26 04:47:00,30.9,28.0,28.59,East,82,0.0,0.0,87,0.00,,,0.00,weatherlink.com 1.10,2013-04-26 08:47:00,
2013-04-26 05:02:00,30.5,28.0,28.59,East,82,0.0,0.0,89,0.00,,,0.00,weatherlink.com 1.10,2013-04-26 09:02:00,
2013-04-26 05:17:00,30.1,28.0,28.59,East,82,0.0,0.0,90,0.00,,,0.00,weatherlink.com 1.10,2013-04-26 09:17:00,
2013-04-26 05:33:00,29.8,27.0,28.60,East,82,0.0,0.0,90,0.00,,,0.00,weatherlink.com 1.10,2013-04-26 09:33:00,
2013-04-26 05:47:00,29.5,27.0,28.61,ENE,71,0.0,0.0,91,0.00,,,0.00,weatherlink.com 1.10,2013-04-26 09:47:00,
2013-04-26 06:02:00,29.3,27.0,28.61,NE,54,0.0,0.0,91,0.00,,,0.00,weatherlink.com 1.10,2013-04-26 10:02:00,
2013-04-26 06:17:00,28.9,27.0,28.62,NE,54,0.0,0.0,91,0.00,,,0.00,weatherlink.com 1.10,2013-04-26 10:17:00,
2013-04-26 06:32:00,29.2,28.0,28.63,ENE,73,0.0,0.0,93,0.00,,,0.00,weatherlink.com 1.10,2013-04-26 10:32:00,
2013-04-26 06:47:00,28.9,27.0,28.63,ENE,73,0.0,0.0,92,0.00,,,0.00,weatherlink.com 1.10,2013-04-26 10:47:00,
2013-04-26 07:03:00,29.6,28.0,28.64,ENE,73,0.0,0.0,93,0.00,,,0.00,weatherlink.com 1.10,2013-04-26 11:03:00,
2013-04-26 07:18:00,30.0,28.0,28.64,East,80,0.0,1.0,92,0.00,,,0.00,weatherlink.com 1.10,2013-04-26 11:18:00,
2013-04-26 07:33:00,30.8,29.0,28.65,ENE,65,0.0,0.0,91,0.00,,,0.00,weatherlink.com 1.10,2013-04-26 11:33:00,
2013-04-26 07:48:00,32.1,30.0,28.66,ENE,65,0.0,0.0,93,0.00,,,0.00,weatherlink.com 1.10,2013-04-26 11:48:00,
2013-04-26 08:03:00,33.8,32.0,28.65,ENE,65,0.0,0.0,92,0.00,,,0.00,weatherlink.com 1.10,2013-04-26 12:03:00,
2013-04-26 08:18:00,35.5,32.0,28.65,SSW,207,1.0,2.0,88,0.00,,,0.00,weatherlink.com 1.10,2013-04-26 12:18:00,
2013-04-26 08:33:00,37.9,34.0,28.65,SSW,210,0.0,1.0,84,0.00,,,0.00,weatherlink.com 1.10,2013-04-26 12:33:00,
2013-04-26 08:48:00,40.2,34.0,28.65,SSW,208,0.0,-999.0,79,-99.99,,,0.00,weatherlink.com 1.10,2013-04-26 12:48:00,
2013-04-26 09:03:00,41.9,34.0,28.66,SSW,210,0.0,2.0,74,0.00,,,0.00,weatherlink.com 1.10,2013-04-26 13:03:00,
2013-04-26 09:18:00,44.0,34.0,28.66,SSW,201,0.0,2.0,69,0.00,,,0.00,weatherlink.com 1.10,2013-04-26 13:18:00,
2013-04-26 09:33:00,47.5,37.0,28.65,SW,217,1.0,2.0,66,0.00,,,0.00,weatherlink.com 1.10,2013-04-26 13:33:00,
2013-04-26 09:48:00,50.6,39.0,28.65,WSW,256,2.0,2.0,64,0.00,,,0.00,weatherlink.com 1.10,2013-04-26 13:48:00,
2013-04-26 10:03:00,53.3,37.0,28.64,SW,218,1.0,3.0,54,0.00,,,0.00,weatherlink.com 1.10,2013-04-26 14:03:00,
2013-04-26 10:18:00,55.0,37.0,28.64,WSW,250,3.0,4.0,52,0.00,,,0.00,weatherlink.com 1.10,2013-04-26 14:18:00,
2013-04-26 10:33:00,56.1,36.0,28.64,SW,228,2.0,5.0,48,0.00,,,0.00,weatherlink.com 1.10,2013-04-26 14:33:00,
2013-04-26 10:48:00,56.8,35.0,28.64,SSW,197,1.0,6.0,45,0.00,,,0.00,weatherlink.com 1.10,2013-04-26 14:48:00,
2013-04-26 11:03:00,57.8,35.0,28.64,WSW,246,3.0,8.0,43,0.00,,,0.00,weatherlink.com 1.10,2013-04-26 15:03:00,
2013-04-26 11:18:00,58.2,36.0,28.63,SSW,201,2.0,7.0,43,0.00,,,0.00,weatherlink.com 1.10,2013-04-26 15:18:00,
2013-04-26 11:33:00,58.7,38.0,28.63,SW,219,3.0,6.0,46,0.00,,,0.00,weatherlink.com 1.10,2013-04-26 15:33:00,
2013-04-26 11:48:00,59.8,35.0,28.62,SW,226,6.0,8.0,39,0.00,,,0.00,weatherlink.com 1.10,2013-04-26 15:48:00,
2013-04-26 12:03:00,60.2,34.0,28.61,ENE,63,0.0,6.0,38,0.00,,,0.00,weatherlink.com 1.10,2013-04-26 16:03:00,
2013-04-26 12:18:00,61.8,36.0,28.61,SW,215,3.0,7.0,39,0.00,,,0.00,weatherlink.com 1.10,2013-04-26 16:18:00,
2013-04-26 12:33:00,62.7,37.0,28.61,SW,229,0.0,6.0,38,0.00,,,0.00,weatherlink.com 1.10,2013-04-26 16:33:00,
2013-04-26 12:48:00,62.7,42.0,28.60,ENE,72,1.0,4.0,47,0.00,,,0.00,weatherlink.com 1.10,2013-04-26 16:48:00,
2013-04-26 13:03:00,63.4,34.0,28.60,ENE,77,2.0,4.0,34,0.00,,,0.00,weatherlink.com 1.10,2013-04-26 17:03:00,
2013-04-26 13:18:00,63.5,38.0,28.60,ENE,61,2.0,3.0,39,0.00,,,0.00,weatherlink.com 1.10,2013-04-26 17:18:00,
2013-04-26 13:33:00,65.0,35.0,28.59,ENE,61,0.0,3.0,33,0.00,,,0.00,weatherlink.com 1.10,2013-04-26 17:33:00,
2013-04-26 13:48:00,66.7,33.0,28.58,SSW,194,1.0,3.0,29,0.00,,,0.00,weatherlink.com 1.10,2013-04-26 17:48:00,
2013-04-26 14:03:00,66.6,38.0,28.58,ENE,78,2.0,4.0,35,0.00,,,0.00,weatherlink.com 1.10,2013-04-26 18:03:00,
2013-04-26 14:18:00,65.3,37.0,28.57,NE,44,2.0,6.0,35,0.00,,,0.00,weatherlink.com 1.10,2013-04-26 18:18:00,
2013-04-26 14:33:00,66.1,37.0,28.57,ENE,74,5.0,5.0,34,0.00,,,0.00,weatherlink.com 1.10,2013-04-26 18:33:00,
2013-04-26 14:48:00,66.4,36.0,28.56,ENE,57,0.0,5.0,32,0.00,,,0.00,weatherlink.com 1.10,2013-04-26 18:48:00,
2013-04-26 15:03:00,66.5,36.0,28.55,SSW,207,2.0,5.0,32,0.00,,,0.00,weatherlink.com 1.10,2013-04-26 19:03:00,
2013-04-26 15:18:00,68.2,39.0,28.55,ENE,74,2.0,9.0,34,0.00,,,0.00,weatherlink.com 1.10,2013-04-26 19:18:00,
2013-04-26 15:33:00,68.6,37.0,28.54,ENE,61,0.0,1.0,32,0.00,,,0.00,weatherlink.com 1.10,2013-04-26 19:33:00,
2013-04-26 15:48:00,68.2,36.0,28.54,ESE,106,5.0,5.0,31,0.00,,,0.00,weatherlink.com 1.10,2013-04-26 19:48:00,
2013-04-26 16:03:00,67.4,39.0,28.53,ENE,61,5.0,6.0,35,0.00,,,0.00,weatherlink.com 1.10,2013-04-26 20:03:00,
2013-04-26 16:18:00,66.4,36.0,28.52,SE,143,2.0,3.0,32,0.00,,,0.00,weatherlink.com 1.10,2013-04-26 20:18:00,
2013-04-26 16:33:00,67.5,35.0,28.52,SW,233,5.0,5.0,30,0.00,,,0.00,weatherlink.com 1.10,2013-04-26 20:33:00,
2013-04-26 16:48:00,68.1,34.0,28.51,SW,221,1.0,4.0,28,0.00,,,0.00,weatherlink.com 1.10,2013-04-26 20:48:00,
2013-04-26 17:03:00,68.1,38.0,28.51,South,183,1.0,9.0,33,0.00,,,0.00,weatherlink.com 1.10,2013-04-26 21:03:00,
2013-04-26 17:18:00,68.1,35.0,28.51,West,269,1.0,7.0,30,0.00,,,0.00,weatherlink.com 1.10,2013-04-26 21:18:00,
2013-04-26 17:33:00,66.6,37.0,28.51,SW,215,2.0,6.0,34,0.00,,,0.00,weatherlink.com 1.10,2013-04-26 21:33:00,
2013-04-26 17:48:00,65.2,39.0,28.51,NW,316,3.0,-999.0,38,-99.99,,,0.00,weatherlink.com 1.10,2013-04-26 21:48:00,
2013-04-26 18:03:00,63.6,37.0,28.51,SSE,153,3.0,9.0,37,0.00,,,0.00,weatherlink.com 1.10,2013-04-26 22:03:00,
2013-04-26 18:18:00,63.9,37.0,28.51,WSW,250,0.0,9.0,37,0.00,,,0.00,weatherlink.com 1.10,2013-04-26 22:18:00,
2013-04-26 18:34:00,63.2,37.0,28.52,SSE,153,3.0,5.0,38,0.00,,,0.00,weatherlink.com 1.10,2013-04-26 22:34:00,
2013-04-26 18:49:00,61.7,38.0,28.53,SSW,211,1.0,5.0,41,0.00,,,0.00,weatherlink.com 1.10,2013-04-26 22:49:00,
2013-04-26 19:04:00,61.2,35.0,28.53,ESE,105,8.0,8.0,37,0.00,,,0.00,weatherlink.com 1.10,2013-04-26 23:04:00,
2013-04-26 19:19:00,60.9,36.0,28.54,SSW,200,0.0,7.0,39,0.00,,,0.00,weatherlink.com 1.10,2013-04-26 23:19:00,
2013-04-26 19:34:00,60.4,36.0,28.55,SW,217,0.0,3.0,40,0.00,,,0.00,weatherlink.com 1.10,2013-04-26 23:34:00,
2013-04-26 19:49:00,58.7,37.0,28.56,WSW,238,1.0,2.0,44,0.00,,,0.00,weatherlink.com 1.10,2013-04-26 23:49:00,
2013-04-26 20:19:00,54.4,37.0,28.57,SSW,204,0.0,0.0,53,0.00,,,0.00,weatherlink.com 1.10,2013-04-27 00:19:00,
2013-04-26 20:34:00,52.7,39.0,28.57,SSW,207,0.0,1.0,59,0.00,,,0.00,weatherlink.com 1.10,2013-04-27 00:34:00,
2013-04-26 20:49:00,52.0,38.0,28.57,SSW,212,0.0,1.0,60,0.00,,,0.00,weatherlink.com 1.10,2013-04-27 00:49:00,
2013-04-26 21:04:00,51.0,39.0,28.58,SW,217,0.0,0.0,63,0.00,,,0.00,weatherlink.com 1.10,2013-04-27 01:04:00,
2013-04-26 21:19:00,49.5,39.0,28.59,SW,217,0.0,0.0,67,0.00,,,0.00,weatherlink.com 1.10,2013-04-27 01:19:00,
2013-04-26 21:34:00,48.9,40.0,28.59,SW,217,0.0,0.0,71,0.00,,,0.00,weatherlink.com 1.10,2013-04-27 01:34:00,
2013-04-26 21:49:00,48.1,39.0,28.60,SW,217,0.0,0.0,72,0.00,,,0.00,weatherlink.com 1.10,2013-04-27 01:49:00,
2013-04-26 22:04:00,47.2,39.0,28.60,SW,217,0.0,0.0,73,0.00,,,0.00,weatherlink.com 1.10,2013-04-27 02:04:00,
2013-04-26 22:19:00,46.4,38.0,28.61,SW,217,0.0,0.0,73,0.00,,,0.00,weatherlink.com 1.10,2013-04-27 02:19:00,
2013-04-26 22:34:00,45.8,39.0,28.60,SW,217,0.0,0.0,76,0.00,,,0.00,weatherlink.com 1.10,2013-04-27 02:34:00,
2013-04-26 22:49:00,44.5,38.0,28.60,SW,217,0.0,0.0,77,0.00,,,0.00,weatherlink.com 1.10,2013-04-27 02:49:00,
2013-04-26 23:04:00,43.6,38.0,28.61,SW,217,0.0,0.0,79,0.00,,,0.00,weatherlink.com 1.10,2013-04-27 03:04:00,
2013-04-26 23:20:00,42.9,38.0,28.60,SW,217,0.0,0.0,82,0.00,,,0.00,weatherlink.com 1.10,2013-04-27 03:20:00,
2013-04-26 23:35:00,42.2,37.0,28.60,SW,217,0.0,0.0,83,0.00,,,0.00,weatherlink.com 1.10,2013-04-27 03:35:00,
2013-04-26 23:50:00,41.1,37.0,28.61,SW,217,0.0,0.0,85,0.00,,,0.00,weatherlink.com 1.10,2013-04-27 03:50:00,